CNR6 weather

Carleton Place Airport
Carleton Place, Ontario, Canada

Public forecast

Using degrees Celsius for public forecast. Weather courtesy of forecast.io.

METAR (pilot weather report)

Closest report is Ottawa Macdonald-Cartier International Airport, 23.3 nm (43.1 km) NE. Retrieved 2019/05/23 11:00 UTC (16 minutes ago):

CYOW 231100Z 09005KT 15SM BKN160 BKN220 11/07 A3002 RMK AC6CI1 SLP168

TAF (pilot weather forecast)

Closest forecast is Ottawa Macdonald-Cartier International Airport, 23.3 nm (43.1 km) NE. Retrieved 2019/05/23 09:42 UTC (2 hours ago):

TAF CYOW 230838Z 2309/2406 10006KT P6SM BKN060 FM231100 12006KT P6SM SCT040 BKN140 FM231500 15010KT P6SM BKN030 BKN140 FM232000 17010G20KT 6SM -SHRA BR BKN020 OVC100 PROB30 2320/2323 VRB20G30KT 1SM +TSRA BR OVC008CB FM232300 25012G22KT P6SM -SHRA SCT015 BKN040 FM240400 29015G25KT P6SM -SHRA OVC015 RMK NXT FCST BY 231200Z